createdAt,value
2018-11-07T00:01:52.536Z,99462.93
2018-11-07T00:04:21.025Z,99470.59
2018-11-07T00:06:49.490Z,99474.39
2018-11-07T00:09:18.892Z,99477.69
2018-11-07T00:11:47.331Z,99468.87
2018-11-07T00:14:15.753Z,99468.25
2018-11-07T00:16:44.211Z,99475.28
2018-11-07T00:19:12.679Z,99472.00
2018-11-07T00:21:41.185Z,99475.93
2018-11-07T00:24:09.565Z,99479.86
2018-11-07T00:26:38.066Z,99470.23
2018-11-07T00:29:06.540Z,99466.77
2018-11-07T00:31:35.112Z,99462.04
2018-11-07T00:34:03.675Z,99457.80
2018-11-07T00:36:32.198Z,99456.99
2018-11-07T00:39:00.877Z,99464.34
2018-11-07T00:41:29.345Z,99464.53
2018-11-07T00:43:57.822Z,99468.95
2018-11-07T00:46:26.295Z,99474.36
2018-11-07T00:48:54.728Z,99472.06
2018-11-07T00:51:23.349Z,99475.48
2018-11-07T00:53:51.894Z,99471.06
2018-11-07T00:56:20.331Z,99465.34
2018-11-07T00:58:48.844Z,99459.11
2018-11-07T01:01:17.420Z,99468.27
2018-11-07T01:03:46.444Z,99472.19
2018-11-07T01:06:14.955Z,99471.69
2018-11-07T01:08:43.417Z,99473.19
2018-11-07T01:11:12.332Z,99477.11
2018-11-07T01:13:40.779Z,99469.94
2018-11-07T01:16:15.795Z,99458.02
2018-11-07T01:18:44.284Z,99461.80
2018-11-07T01:21:12.738Z,99464.11
2018-11-07T01:23:41.217Z,99465.59
2018-11-07T01:26:09.677Z,99462.98
2018-11-07T01:28:38.157Z,99458.06
2018-11-07T01:31:06.790Z,99454.14
2018-11-07T01:33:35.459Z,99450.22
2018-11-07T01:36:03.993Z,99461.17
2018-11-07T01:38:32.489Z,99457.75
2018-11-07T01:41:00.978Z,99454.83
2018-11-07T01:43:29.499Z,99456.12
2018-11-07T01:45:57.906Z,99457.44
2018-11-07T01:48:26.638Z,99463.63
2018-11-07T01:50:55.077Z,99473.83
2018-11-07T01:53:23.528Z,99474.66
2018-11-07T01:55:52.194Z,99470.13
2018-11-07T01:58:20.639Z,99461.84
2018-11-07T02:00:49.202Z,99460.22
2018-11-07T02:03:18.111Z,99454.33
2018-11-07T02:05:47.151Z,99457.30
2018-11-07T02:08:15.607Z,99455.84
2018-11-07T02:10:44.018Z,99460.75
2018-11-07T02:13:12.424Z,99461.74
2018-11-07T02:15:40.881Z,99460.62
2018-11-07T02:18:09.407Z,99467.65
2018-11-07T02:20:37.863Z,99473.20
2018-11-07T02:23:06.475Z,99470.14
2018-11-07T02:25:34.982Z,99469.16
2018-11-07T02:28:03.440Z,99471.51
2018-11-07T02:30:31.844Z,99470.03
2018-11-07T02:33:00.273Z,99472.83
2018-11-07T02:35:30.398Z,99462.06
2018-11-07T02:37:58.811Z,99453.23
2018-11-07T02:40:27.288Z,99450.25
2018-11-07T02:42:55.680Z,99453.22
2018-11-07T02:45:24.231Z,99453.17
2018-11-07T02:47:52.696Z,99454.30
2018-11-07T02:50:21.184Z,99452.84
2018-11-07T02:52:49.646Z,99450.05
2018-11-07T02:55:18.797Z,99444.95
2018-11-07T02:57:47.405Z,99447.55
2018-11-07T03:00:15.909Z,99441.33
2018-11-07T03:02:44.357Z,99427.58
2018-11-07T03:05:12.739Z,99430.35
2018-11-07T03:07:41.431Z,99442.06
2018-11-07T03:10:11.337Z,99445.84
2018-11-07T03:12:40.862Z,99449.08
2018-11-07T03:15:10.067Z,99438.75
2018-11-07T03:17:38.499Z,99436.61
2018-11-07T03:20:09.973Z,99433.62
2018-11-07T03:22:38.478Z,99437.37
2018-11-07T03:25:06.931Z,99434.26
2018-11-07T03:27:35.341Z,99432.33
2018-11-07T03:30:04.638Z,99428.09
2018-11-07T03:32:33.022Z,99429.89
2018-11-07T03:35:01.464Z,99426.78
2018-11-07T03:37:29.897Z,99432.01
2018-11-07T03:39:58.484Z,99439.48
2018-11-07T03:42:26.809Z,99434.44
2018-11-07T03:44:55.171Z,99430.88
2018-11-07T03:47:23.608Z,99426.34
2018-11-07T03:49:52.059Z,99425.66
2018-11-07T03:52:20.446Z,99429.10
2018-11-07T03:54:48.845Z,99410.85
2018-11-07T03:57:17.340Z,99405.31
2018-11-07T03:59:45.753Z,99404.47
2018-11-07T04:02:14.453Z,99403.66
2018-11-07T04:10:54.735Z,99416.38
2018-11-07T04:13:30.822Z,99409.73
2018-11-07T04:15:59.277Z,99410.73
2018-11-07T04:18:27.715Z,99412.86
2018-11-07T04:20:56.146Z,99409.30
2018-11-07T04:23:24.506Z,99407.68
2018-11-07T04:25:52.892Z,99400.16
2018-11-07T04:28:21.270Z,99407.36
2018-11-07T04:30:49.825Z,99407.98
2018-11-07T04:33:18.285Z,99405.05
2018-11-07T04:35:47.165Z,99398.20
2018-11-07T04:38:15.566Z,99398.70
2018-11-07T04:40:44.732Z,99397.08
2018-11-07T04:43:13.136Z,99400.36
2018-11-07T04:45:41.618Z,99395.60
2018-11-07T04:48:10.342Z,99394.80
2018-11-07T04:50:38.812Z,99405.42
2018-11-07T04:53:07.181Z,99402.99
2018-11-07T04:55:35.664Z,99408.53
2018-11-07T04:58:04.106Z,99403.17
2018-11-07T05:00:32.602Z,99408.23
2018-11-07T05:03:01.066Z,99408.23
2018-11-07T05:05:29.525Z,99404.31
2018-11-07T05:07:57.985Z,99407.42
2018-11-07T05:10:26.381Z,99406.44
2018-11-07T05:12:54.801Z,99402.52
2018-11-07T05:15:23.248Z,99399.09
2018-11-07T05:17:51.763Z,99404.31
2018-11-07T05:20:20.234Z,99412.97
2018-11-07T05:22:48.601Z,99419.50
2018-11-07T05:25:17.012Z,99418.05
2018-11-07T05:27:45.394Z,99425.08
2018-11-07T05:30:13.992Z,99433.09
2018-11-07T05:32:43.183Z,99442.39
2018-11-07T05:35:11.617Z,99444.86
2018-11-07T05:37:40.107Z,99441.94
2018-11-07T05:40:08.617Z,99449.28
2018-11-07T05:42:37.006Z,99443.73
2018-11-07T05:45:05.897Z,99439.81
2018-11-07T05:47:34.536Z,99447.52
2018-11-07T05:50:03.241Z,99447.02
2018-11-07T05:52:31.646Z,99451.44
2018-11-07T05:55:00.048Z,99457.97
2018-11-07T05:57:28.865Z,99461.53
2018-11-07T05:59:57.239Z,99467.75
2018-11-07T06:02:25.958Z,99474.77
2018-11-07T06:04:54.368Z,99471.20
2018-11-07T06:07:22.828Z,99475.77
2018-11-07T06:09:51.218Z,99472.20
2018-11-07T06:12:19.658Z,99475.45
2018-11-07T06:14:48.102Z,99475.77
2018-11-07T06:17:16.543Z,99476.58
2018-11-07T06:19:44.941Z,99484.41
2018-11-07T06:22:13.364Z,99481.80
2018-11-07T06:24:44.939Z,99479.05
2018-11-07T06:27:13.470Z,99475.80
2018-11-07T06:29:41.879Z,99480.36
2018-11-07T06:32:10.335Z,99474.50
2018-11-07T06:34:38.730Z,99482.83
2018-11-07T06:37:07.219Z,99480.72
2018-11-07T06:39:35.614Z,99478.42
2018-11-07T06:42:04.360Z,99486.89
2018-11-07T06:44:32.852Z,99484.28
2018-11-07T06:47:01.328Z,99487.23
2018-11-07T06:49:29.723Z,99485.44
2018-11-07T06:51:58.132Z,99481.67
2018-11-07T06:54:26.489Z,99484.13
2018-11-07T06:56:54.908Z,99488.38
2018-11-07T06:59:23.384Z,99486.25
2018-11-07T07:01:51.788Z,99486.25
2018-11-07T07:04:20.591Z,99485.76
2018-11-07T07:06:48.930Z,99487.88
2018-11-07T07:09:17.405Z,99482.79
2018-11-07T07:11:45.812Z,99485.05
2018-11-07T07:14:14.326Z,99485.48
2018-11-07T07:16:43.432Z,99490.16
2018-11-07T07:19:12.245Z,99490.89
2018-11-07T07:21:40.645Z,99494.22
2018-11-07T07:24:09.065Z,99490.33
2018-11-07T07:26:37.461Z,99502.44
2018-11-07T07:29:05.940Z,99507.00
2018-11-07T07:31:34.359Z,99511.38
2018-11-07T07:34:02.778Z,99505.47
2018-11-07T07:36:31.155Z,99503.24
2018-11-07T07:38:59.593Z,99506.08
2018-11-07T07:41:28.370Z,99504.65
2018-11-07T07:43:56.762Z,99495.61
2018-11-07T07:46:25.152Z,99503.63
2018-11-07T07:48:53.592Z,99491.85
2018-11-07T07:51:21.963Z,99494.91
2018-11-07T07:53:50.411Z,99506.91
2018-11-07T07:56:18.852Z,99502.10
2018-11-07T07:58:47.241Z,99501.61
2018-11-07T08:01:15.970Z,99498.17
2018-11-07T08:03:44.403Z,99497.24
2018-11-07T08:06:12.792Z,99491.07
2018-11-07T08:08:41.234Z,99485.89
2018-11-07T08:11:09.666Z,99482.63
2018-11-07T08:13:38.166Z,99486.05
2018-11-07T08:16:06.692Z,99475.11
2018-11-07T08:18:35.118Z,99477.63
2018-11-07T08:21:03.786Z,99478.70
2018-11-07T08:23:32.204Z,99483.08
2018-11-07T08:26:00.800Z,99481.68
2018-11-07T08:28:29.250Z,99478.00
2018-11-07T08:30:57.799Z,99476.38
2018-11-07T08:33:26.132Z,99472.83
2018-11-07T08:35:55.094Z,99482.71
2018-11-07T08:38:23.994Z,99482.92
2018-11-07T08:40:52.380Z,99482.62
2018-11-07T08:43:20.760Z,99489.34
2018-11-07T08:45:49.326Z,99484.48
2018-11-07T08:48:17.889Z,99482.76
2018-11-07T08:50:47.244Z,99481.84
2018-11-07T08:53:15.657Z,99482.53
2018-11-07T08:55:44.090Z,99484.64
2018-11-07T08:58:12.507Z,99487.78
2018-11-07T09:00:40.953Z,99481.52
2018-11-07T09:03:09.426Z,99483.50
2018-11-07T09:05:37.862Z,99483.64
2018-11-07T09:08:06.301Z,99482.45
2018-11-07T09:10:34.704Z,99483.84
2018-11-07T09:13:03.200Z,99482.84
2018-11-07T09:15:31.692Z,99491.82
2018-11-07T09:18:00.168Z,99489.33
2018-11-07T09:20:28.996Z,99485.85
2018-11-07T09:22:57.390Z,99486.84
2018-11-07T09:25:25.828Z,99485.13
2018-11-07T09:27:54.212Z,99486.88
2018-11-07T09:30:23.347Z,99480.55
2018-11-07T09:32:51.829Z,99480.94
2018-11-07T09:35:20.810Z,99482.02
2018-11-07T09:37:49.271Z,99474.27
2018-11-07T09:40:19.119Z,99475.33
2018-11-07T09:42:48.853Z,99472.41
2018-11-07T09:45:19.574Z,99469.19
2018-11-07T09:47:48.343Z,99469.16
2018-11-07T09:50:17.640Z,99467.55
2018-11-07T09:52:46.630Z,99459.98
2018-11-07T09:55:16.339Z,99463.73
2018-11-07T09:57:44.928Z,99464.50
2018-11-07T10:00:15.778Z,99467.14
2018-11-07T10:02:45.449Z,99464.59
2018-11-07T10:05:14.793Z,99468.95
2018-11-07T10:07:43.224Z,99467.65
2018-11-07T10:10:14.382Z,99467.06
2018-11-07T10:12:43.211Z,99468.05
2018-11-07T10:15:12.292Z,99463.13
2018-11-07T10:17:40.886Z,99457.91
2018-11-07T10:20:17.420Z,99456.94
2018-11-07T10:22:47.136Z,99458.91
2018-11-07T10:25:15.730Z,99461.95
2018-11-07T10:27:44.566Z,99460.45
2018-11-07T10:30:14.706Z,99464.56
2018-11-07T10:32:44.403Z,99455.25
2018-11-07T10:35:13.405Z,99462.59
2018-11-07T10:37:42.107Z,99467.16
2018-11-07T10:40:15.242Z,99465.70
2018-11-07T10:42:44.112Z,99463.08
2018-11-07T10:45:12.809Z,99461.98
2018-11-07T10:47:42.328Z,99456.76
2018-11-07T10:50:12.127Z,99467.80
2018-11-07T10:52:41.604Z,99466.41
2018-11-07T10:55:10.838Z,99465.38
2018-11-07T10:57:39.402Z,99458.38
2018-11-07T11:00:16.763Z,99450.95
2018-11-07T11:02:46.834Z,99450.72
2018-11-07T11:05:17.253Z,99455.41
2018-11-07T11:07:45.723Z,99448.92
2018-11-07T11:10:14.276Z,99443.72
2018-11-07T11:12:43.966Z,99446.52
2018-11-07T11:15:12.432Z,99451.05
2018-11-07T11:17:40.992Z,99455.99
2018-11-07T11:20:11.672Z,99446.09
2018-11-07T11:22:40.202Z,99447.03
2018-11-07T11:25:08.683Z,99443.89
2018-11-07T11:27:37.400Z,99451.05
2018-11-07T11:30:06.916Z,99442.52
2018-11-07T11:32:35.327Z,99440.61
2018-11-07T11:35:04.098Z,99441.80
2018-11-07T11:37:32.757Z,99437.03
2018-11-07T11:40:01.333Z,99432.58
2018-11-07T11:42:29.744Z,99436.94
2018-11-07T11:44:58.319Z,99437.76
2018-11-07T11:47:26.712Z,99441.47
2018-11-07T11:49:55.094Z,99437.30
2018-11-07T11:52:23.766Z,99437.81
2018-11-07T11:54:52.272Z,99427.77
2018-11-07T11:57:21.032Z,99430.02
2018-11-07T11:59:49.749Z,99439.80
2018-11-07T12:02:18.043Z,99440.67
2018-11-07T12:04:47.616Z,99447.77
2018-11-07T12:07:16.041Z,99448.64
2018-11-07T12:09:44.457Z,99452.02
2018-11-07T12:12:13.111Z,99451.13
2018-11-07T12:14:41.485Z,99447.91
2018-11-07T12:17:09.976Z,99443.76
2018-11-07T12:19:38.485Z,99445.92
2018-11-07T12:22:06.867Z,99434.70
2018-11-07T12:24:35.325Z,99431.51
2018-11-07T12:27:03.734Z,99438.41
2018-11-07T12:29:32.154Z,99435.10
2018-11-07T12:32:00.852Z,99432.23
2018-11-07T12:34:35.932Z,99438.38
2018-11-07T12:37:04.635Z,99432.34
2018-11-07T12:39:33.051Z,99433.30
2018-11-07T12:42:01.480Z,99427.80
2018-11-07T12:44:29.924Z,99431.49
2018-11-07T12:46:58.333Z,99432.83
2018-11-07T12:49:26.719Z,99429.48
2018-11-07T12:51:55.052Z,99432.42
2018-11-07T12:54:23.476Z,99428.55
2018-11-07T12:56:51.822Z,99429.16
2018-11-07T12:59:20.195Z,99433.30
2018-11-07T13:01:48.622Z,99434.09
2018-11-07T13:04:17.085Z,99435.53
2018-11-07T13:06:45.506Z,99436.27
2018-11-07T13:09:13.936Z,99440.70
2018-11-07T13:11:42.337Z,99441.36
2018-11-07T13:14:17.562Z,99442.85
2018-11-07T13:16:46.102Z,99452.17
2018-11-07T13:19:14.426Z,99458.84
2018-11-07T13:21:42.889Z,99457.97
2018-11-07T13:24:11.666Z,99460.82
2018-11-07T13:26:40.114Z,99456.55
2018-11-07T13:29:08.560Z,99460.80
2018-11-07T13:31:37.052Z,99464.08
2018-11-07T13:34:05.836Z,99462.81
2018-11-07T13:36:34.665Z,99473.72
2018-11-07T13:39:05.904Z,99469.27
2018-11-07T13:41:33.849Z,99472.78
2018-11-07T13:44:02.287Z,99478.13
2018-11-07T13:46:37.424Z,99479.45
2018-11-07T13:49:06.089Z,99478.95
2018-11-07T13:51:34.878Z,99481.58
2018-11-07T13:54:03.308Z,99477.91
2018-11-07T13:56:35.459Z,99481.92
2018-11-07T13:59:05.068Z,99486.42
2018-11-07T14:01:33.616Z,99488.10
2018-11-07T14:04:02.172Z,99491.43
2018-11-07T14:06:30.968Z,99492.66
2018-11-07T14:08:59.506Z,99493.54
2018-11-07T14:11:27.986Z,99499.44
2018-11-07T14:13:56.436Z,99504.51
2018-11-07T14:16:24.920Z,99503.33
2018-11-07T14:18:53.565Z,99506.20
2018-11-07T14:21:21.961Z,99509.63
2018-11-07T14:23:50.490Z,99511.39
2018-11-07T14:26:19.794Z,99517.98
2018-11-07T14:28:49.229Z,99521.62
2018-11-07T14:31:17.725Z,99525.24
2018-11-07T14:33:46.940Z,99529.36
2018-11-07T14:36:15.397Z,99528.91
2018-11-07T14:38:43.939Z,99527.38
2018-11-07T14:41:12.318Z,99524.73
2018-11-07T14:43:40.767Z,99521.58
2018-11-07T14:46:09.264Z,99525.62
2018-11-07T14:48:37.624Z,99528.06
2018-11-07T14:51:06.714Z,99522.14
2018-11-07T14:53:35.090Z,99517.59
2018-11-07T14:56:03.798Z,99521.34
2018-11-07T14:58:32.189Z,99532.81
2018-11-07T15:01:00.585Z,99528.20
2018-11-07T15:03:28.959Z,99536.45
2018-11-07T15:05:57.390Z,99536.64
2018-11-07T15:08:25.949Z,99543.23
2018-11-07T15:10:54.166Z,99545.80
2018-11-07T15:13:22.572Z,99544.61
2018-11-07T15:15:50.964Z,99552.25
2018-11-07T15:18:19.653Z,99557.44
2018-11-07T15:20:48.778Z,99554.66
2018-11-07T15:23:17.204Z,99567.56
2018-11-07T15:25:49.618Z,99565.23
2018-11-07T15:28:18.045Z,99567.42
2018-11-07T15:30:46.483Z,99576.05
2018-11-07T15:33:14.913Z,99580.59
2018-11-07T15:35:43.405Z,99586.73
2018-11-07T15:38:11.870Z,99587.31
2018-11-07T15:40:40.335Z,99597.49
2018-11-07T15:43:08.812Z,99592.50
2018-11-07T15:45:37.280Z,99593.91
2018-11-07T15:48:06.114Z,99608.05
2018-11-07T15:50:40.350Z,99608.42
2018-11-07T15:53:08.842Z,99614.32
2018-11-07T15:55:37.502Z,99617.03
2018-11-07T15:58:06.087Z,99627.18
2018-11-07T16:00:34.433Z,99629.84
2018-11-07T16:03:03.281Z,99627.45
2018-11-07T16:05:31.697Z,99630.83
2018-11-07T16:08:00.066Z,99629.99
2018-11-07T16:10:29.172Z,99631.56
2018-11-07T16:12:57.654Z,99637.97
2018-11-07T16:15:26.348Z,99647.84
2018-11-07T16:17:54.722Z,99653.22
2018-11-07T16:20:23.147Z,99656.95
2018-11-07T16:22:51.790Z,99658.73
2018-11-07T16:25:20.443Z,99661.68
2018-11-07T16:27:48.872Z,99672.59
2018-11-07T16:30:18.737Z,99667.05
2018-11-07T16:32:48.702Z,99669.51
2018-11-07T16:35:17.305Z,99675.13
2018-11-07T16:37:46.335Z,99667.27
2018-11-07T16:40:16.128Z,99670.02
2018-11-07T16:42:45.186Z,99680.90
2018-11-07T16:45:15.030Z,99689.97
2018-11-07T16:47:43.664Z,99692.83
2018-11-07T16:50:13.368Z,99706.80
2018-11-07T16:52:41.979Z,99713.34
2018-11-07T16:55:10.376Z,99720.26
2018-11-07T16:57:39.136Z,99725.63
2018-11-07T17:00:11.971Z,99730.17
2018-11-07T17:02:40.605Z,99727.42
2018-11-07T17:05:10.183Z,99736.97
2018-11-07T17:07:38.953Z,99738.34
2018-11-07T17:10:08.392Z,99737.88
2018-11-07T17:12:37.182Z,99739.58
2018-11-07T17:15:06.119Z,99747.56
2018-11-07T17:17:34.540Z,99748.80
2018-11-07T17:20:03.283Z,99758.91
2018-11-07T17:22:31.719Z,99764.67
2018-11-07T17:25:00.148Z,99758.52
2018-11-07T17:27:28.876Z,99751.94
2018-11-07T17:29:58.644Z,99750.25
2018-11-07T17:32:27.291Z,99760.64
2018-11-07T17:34:56.663Z,99772.16
2018-11-07T17:37:25.108Z,99773.91
2018-11-07T17:39:53.926Z,99775.05
2018-11-07T17:42:23.357Z,99783.33
2018-11-07T17:44:52.414Z,99783.94
2018-11-07T17:47:21.101Z,99789.33
2018-11-07T17:49:49.569Z,99800.03
2018-11-07T17:52:18.182Z,99799.41
2018-11-07T17:54:46.619Z,99801.66
2018-11-07T17:57:15.138Z,99803.59
2018-11-07T17:59:43.946Z,99800.06
2018-11-07T18:02:12.492Z,99803.31
2018-11-07T18:04:41.097Z,99810.31
2018-11-07T18:07:09.558Z,99811.33
2018-11-07T18:09:38.014Z,99803.80
2018-11-07T18:12:06.432Z,99809.00
2018-11-07T18:14:35.628Z,99821.28
2018-11-07T18:17:04.897Z,99818.77
2018-11-07T18:19:33.818Z,99822.81
2018-11-07T18:22:02.204Z,99822.91
2018-11-07T18:24:30.825Z,99825.16
2018-11-07T18:26:59.308Z,99816.83
2018-11-07T18:29:27.719Z,99819.67
2018-11-07T18:31:58.156Z,99818.27
2018-11-07T18:34:28.268Z,99820.31
2018-11-07T18:36:56.771Z,99821.80
2018-11-07T18:39:25.461Z,99822.23
2018-11-07T18:41:53.963Z,99827.89
2018-11-07T18:44:22.483Z,99827.59
2018-11-07T18:46:51.723Z,99833.80
2018-11-07T18:49:21.172Z,99830.64
2018-11-07T18:51:49.624Z,99830.73
2018-11-07T18:54:18.041Z,99834.59
2018-11-07T18:56:46.478Z,99837.11
2018-11-07T18:59:15.103Z,99839.14
2018-11-07T19:01:44.196Z,99840.67
2018-11-07T19:04:12.897Z,99839.56
2018-11-07T19:06:41.517Z,99840.58
2018-11-07T19:09:09.949Z,99844.70
2018-11-07T19:11:38.433Z,99844.92
2018-11-07T19:14:07.252Z,99853.34
2018-11-07T19:16:36.159Z,99848.14
2018-11-07T19:19:05.435Z,99852.52
2018-11-07T19:21:33.864Z,99864.37
2018-11-07T19:24:02.735Z,99860.62
2018-11-07T19:26:31.404Z,99864.28
2018-11-07T19:29:00.299Z,99863.14
2018-11-07T19:31:28.729Z,99869.13
2018-11-07T19:33:57.119Z,99870.34
2018-11-07T19:36:25.641Z,99871.03
2018-11-07T19:38:54.130Z,99878.34
2018-11-07T19:41:22.626Z,99881.27
2018-11-07T19:43:51.110Z,99891.02
2018-11-07T19:46:19.579Z,99889.99
2018-11-07T19:48:48.051Z,99899.52
2018-11-07T19:51:16.549Z,99896.59
2018-11-07T19:53:45.159Z,99905.72
2018-11-07T19:56:13.835Z,99909.75
2018-11-07T19:58:42.334Z,99921.81
2018-11-07T20:01:10.912Z,99931.58
2018-11-07T20:03:39.370Z,99933.52
2018-11-07T20:06:07.909Z,99932.06
2018-11-07T20:08:36.461Z,99939.77
2018-11-07T20:11:05.380Z,99945.91
2018-11-07T20:13:33.875Z,99952.70
2018-11-07T20:16:02.592Z,99951.14
2018-11-07T20:18:31.185Z,99965.91
2018-11-07T20:20:59.679Z,99971.77
2018-11-07T20:23:28.338Z,99970.02
2018-11-07T20:25:56.768Z,99970.72
2018-11-07T20:28:25.289Z,99973.55
2018-11-07T20:30:53.872Z,99974.88
2018-11-07T20:33:22.244Z,99977.00
2018-11-07T20:35:51.012Z,99988.34
2018-11-07T20:38:19.462Z,99986.72
2018-11-07T20:40:48.103Z,99999.09
2018-11-07T20:43:16.671Z,100000.57
2018-11-07T20:45:45.292Z,100003.09
2018-11-07T20:48:14.045Z,100000.52
2018-11-07T20:50:42.460Z,100000.83
2018-11-07T20:53:10.916Z,99994.24
2018-11-07T20:55:39.465Z,99988.67
2018-11-07T20:58:07.839Z,99989.17
2018-11-07T21:00:36.303Z,99994.13
2018-11-07T21:03:05.185Z,99991.50
2018-11-07T21:05:33.597Z,99993.33
2018-11-07T21:08:01.978Z,99992.20
2018-11-07T21:10:30.400Z,100004.05
2018-11-07T21:12:58.848Z,100005.57
2018-11-07T21:15:27.302Z,100008.56
2018-11-07T21:17:55.677Z,100004.20
2018-11-07T21:20:24.080Z,100004.06
2018-11-07T21:22:53.537Z,100000.30
2018-11-07T21:25:22.010Z,100013.36
2018-11-07T21:27:50.982Z,100006.13
2018-11-07T21:30:19.401Z,99997.31
2018-11-07T21:32:47.824Z,100002.07
2018-11-07T21:35:16.244Z,99996.80
2018-11-07T21:37:44.629Z,100006.83
2018-11-07T21:40:15.116Z,100007.84
2018-11-07T21:42:44.208Z,100015.94
2018-11-07T21:45:13.555Z,100015.80
2018-11-07T21:47:42.380Z,100016.19
2018-11-07T21:50:12.713Z,100017.50
2018-11-07T21:52:41.313Z,100022.12
2018-11-07T21:55:09.787Z,100015.53
2018-11-07T21:57:38.449Z,100014.56
2018-11-07T22:00:14.450Z,100022.45
2018-11-07T22:02:43.188Z,100025.91
2018-11-07T22:05:12.225Z,100021.14
2018-11-07T22:07:40.923Z,100029.59
2018-11-07T22:10:10.539Z,100027.52
2018-11-07T22:12:39.005Z,100027.20
2018-11-07T22:15:08.216Z,100028.02
2018-11-07T22:17:37.149Z,100030.15
2018-11-07T22:20:13.152Z,100024.58
2018-11-07T22:22:41.867Z,100024.77
2018-11-07T22:25:10.313Z,100025.27
2018-11-07T22:27:38.733Z,100024.77
2018-11-07T22:30:09.709Z,100030.03
2018-11-07T22:32:38.611Z,100027.41
2018-11-07T22:35:08.904Z,100035.80
2018-11-07T22:37:37.321Z,100039.05
2018-11-07T22:40:07.951Z,100035.49
2018-11-07T22:42:36.679Z,100039.30
2018-11-07T22:45:05.804Z,100039.99
2018-11-07T22:47:34.366Z,100045.95
2018-11-07T22:50:02.830Z,100039.38
2018-11-07T22:52:38.273Z,100042.81
2018-11-07T22:55:07.474Z,100047.58
2018-11-07T22:57:35.954Z,100044.14
2018-11-07T23:00:13.754Z,100043.13
2018-11-07T23:02:42.225Z,100050.21
2018-11-07T23:05:10.630Z,100055.59
2018-11-07T23:07:39.119Z,100050.13
2018-11-07T23:10:07.585Z,100050.98
2018-11-07T23:12:36.029Z,100060.00
2018-11-07T23:15:04.859Z,100057.98
2018-11-07T23:17:33.271Z,100056.16
2018-11-07T23:20:01.693Z,100056.67
2018-11-07T23:22:30.083Z,100057.48
2018-11-07T23:24:58.471Z,100058.60
2018-11-07T23:27:26.874Z,100061.23
2018-11-07T23:29:55.237Z,100068.16
2018-11-07T23:32:23.683Z,100072.41
2018-11-07T23:34:52.435Z,100081.13
2018-11-07T23:37:20.832Z,100074.90
2018-11-07T23:39:49.206Z,100087.25
2018-11-07T23:42:17.634Z,100091.70
2018-11-07T23:44:46.075Z,100089.27
2018-11-07T23:47:14.473Z,100098.47
2018-11-07T23:49:42.941Z,100096.03
2018-11-07T23:52:15.942Z,100102.92
2018-11-07T23:54:44.423Z,100106.56
2018-11-07T23:57:12.848Z,100109.23
2018-11-07T23:59:41.222Z,100113.06
